Terminal Aerodrome Forecast
Issued by NWS

Home | Current Version | Previous Version | Graphics & Text | Print | Product List | Glossary On
Versions: 1 2 3 4 5 6 7 8 9 10 11 12 13 14 15 16 17 18 19 20 21 22 23 24 25 26 27 28 29
000
FTUS43 KABR 212339
TAFATY
TAF
KATY 212339Z 2200/2224 18003KT P6SM OVC019
     FM220200 14004KT P6SM FEW019 BKN050
     FM220600 14004KT P6SM BKN008
     FM220800 14004KT 3/4SM BR BKN008
     FM221000 15004KT 1/2SM FG OVC003
     FM221300 15004KT 2SM BR SCT008
     FM221400 15005KT 4SM BR SCT035
     FM221600 15005KT P6SM FEW250=

USA.gov is the U.S. government's official web portal to all federal, state and local government web resources and services.